createdAt,value
2022-10-12T00:02:53.304Z,53.4
2022-10-12T00:08:30.768Z,53.3
2022-10-12T00:14:06.906Z,53.3
2022-10-12T03:46:28.782Z,51.8
2022-10-12T03:52:06.667Z,51.8
2022-10-12T03:57:27.797Z,51.7
2022-10-12T04:03:06.915Z,51.7
2022-10-12T04:08:29.483Z,51.6
2022-10-12T04:14:09.554Z,51.6
2022-10-12T04:19:50.203Z,51.6
2022-10-12T04:25:29.930Z,51.5
2022-10-12T04:31:07.619Z,51.5
2022-10-12T04:36:29.261Z,51.4
2022-10-12T04:41:52.801Z,51.4
2022-10-12T04:47:29.495Z,51.4
2022-10-12T04:53:06.744Z,51.3
2022-10-12T04:58:30.162Z,51.3
2022-10-12T05:03:57.873Z,51.3
2022-10-12T05:09:19.769Z,51.2
2022-10-12T05:14:42.094Z,51.2
2022-10-12T05:20:18.559Z,51.1
2022-10-12T05:25:45.949Z,51.1
2022-10-12T05:31:14.751Z,51.1
2022-10-12T05:36:39.656Z,51
2022-10-12T05:42:06.457Z,51
2022-10-12T05:47:31.158Z,50.9
2022-10-12T05:52:52.787Z,50.9
2022-10-12T05:58:15.189Z,50.9
2022-10-12T06:03:42.526Z,50.8
2022-10-12T06:09:03.923Z,50.8
2022-10-12T06:14:29.867Z,50.8
2022-10-12T06:19:52.062Z,50.8
2022-10-12T06:25:44.224Z,50.7
2022-10-12T06:31:05.827Z,50.6
2022-10-12T06:36:12.528Z,50.6
2022-10-12T06:42:03.980Z,50.6
2022-10-12T06:47:45.754Z,50.6
2022-10-12T06:53:09.469Z,50.5
2022-10-12T06:58:35.158Z,50.5
2022-10-12T07:04:17.181Z,50.4
2022-10-12T07:09:39.984Z,50.4
2022-10-12T07:15:01.060Z,50.4
2022-10-12T07:20:23.544Z,50.3
2022-10-12T07:26:03.990Z,50.3
2022-10-12T07:31:25.554Z,50.3
2022-10-12T07:37:48.057Z,50.2
2022-10-12T07:43:37.917Z,50.2
2022-10-12T07:49:06.745Z,50.1
2022-10-12T07:54:46.126Z,50.1
2022-10-12T18:09:01.391Z,45.6
2022-10-12T18:14:26.223Z,45.4
2022-10-12T18:20:03.678Z,45.3
2022-10-12T18:25:26.579Z,45.3
2022-10-12T18:30:49.293Z,44.7
2022-10-12T18:36:25.188Z,44.5
2022-10-12T18:42:06.051Z,44.5
2022-10-12T18:47:28.803Z,44.4
2022-10-12T18:52:51.049Z,44.4
2022-10-12T18:58:30.968Z,44.3
2022-10-12T19:03:53.968Z,44.3
2022-10-12T19:09:32.541Z,44.3
2022-10-12T19:15:09.737Z,44.2
2022-10-12T19:20:47.525Z,44.1
2022-10-12T19:26:24.765Z,44.1
2022-10-12T19:31:47.806Z,41.1
2022-10-12T19:37:25.826Z,41.9
2022-10-12T19:43:03.046Z,43.4
2022-10-12T19:48:41.066Z,45
2022-10-12T19:53:53.367Z,46.6
2022-10-12T19:59:18.827Z,48.1
2022-10-12T20:04:25.620Z,49.6
2022-10-12T20:10:03.563Z,50.7
2022-10-12T20:15:44.595Z,50.8
2022-10-12T20:21:07.509Z,50.7
2022-10-12T20:26:49.793Z,50.7
2022-10-12T20:32:27.843Z,50.7
2022-10-12T20:37:49.513Z,50.6
2022-10-12T20:43:28.074Z,50.6
2022-10-12T20:48:49.465Z,50.6
2022-10-12T20:54:11.327Z,50.6
2022-10-12T20:59:51.089Z,50.5
2022-10-12T21:05:28.827Z,50.4
2022-10-12T21:11:10.921Z,50.4
2022-10-12T21:16:34.105Z,50.4
2022-10-12T21:22:17.855Z,50.4
2022-10-12T21:27:55.417Z,50.3
2022-10-12T21:33:34.019Z,50.3
2022-10-12T21:44:17.567Z,50.3
2022-10-12T21:49:55.164Z,50.2
2022-10-12T21:55:17.808Z,50.2
2022-10-12T22:00:23.524Z,50.1
2022-10-12T22:05:30.168Z,50.1
2022-10-12T22:10:57.256Z,50.1
